createdAt,value
2022-08-16T00:00:20.519Z,3.78
2022-08-16T00:03:13.445Z,2.88
2022-08-16T00:06:00.532Z,3.35
2022-08-16T00:08:46.338Z,2.92
2022-08-16T00:11:32.191Z,2.67
2022-08-16T00:14:24.402Z,3.42
2022-08-16T00:17:18.822Z,3.45
2022-08-16T00:20:12.366Z,2.97
2022-08-16T00:22:58.378Z,3.90
2022-08-16T00:26:35.678Z,3.92
2022-08-16T00:28:54.863Z,3.83
2022-08-16T00:31:59.623Z,3.60
2022-08-16T00:34:53.024Z,3.13
2022-08-16T00:37:57.256Z,2.97
2022-08-16T00:40:50.771Z,2.67
2022-08-16T00:43:42.800Z,3.00
2022-08-16T00:47:06.019Z,3.28
2022-08-16T00:49:56.631Z,2.60
2022-08-16T00:52:45.872Z,2.72
2022-08-16T00:55:39.254Z,2.95
2022-08-16T00:58:32.264Z,3.15
2022-08-16T01:01:20.889Z,2.53
2022-08-16T01:04:29.218Z,3.03
2022-08-16T01:07:17.565Z,2.78
2022-08-16T01:10:04.484Z,2.97
2022-08-16T01:13:12.345Z,2.67
2022-08-16T01:16:10.357Z,3.25
2022-08-16T01:19:11.747Z,3.15
2022-08-16T01:22:48.559Z,3.47
2022-08-16T01:25:18.757Z,3.30
2022-08-16T01:28:19.916Z,3.33
2022-08-16T01:31:08.700Z,3.13
2022-08-16T01:33:54.040Z,3.75
2022-08-16T01:36:40.675Z,3.08
2022-08-16T01:39:27.063Z,5.10
2022-08-16T01:42:13.322Z,2.88
2022-08-16T01:45:05.049Z,3.40
2022-08-16T01:47:52.318Z,3.15
2022-08-16T01:51:08.338Z,3.75
2022-08-16T01:53:55.178Z,2.90
2022-08-16T01:56:49.129Z,3.60
2022-08-16T01:59:37.395Z,2.95
2022-08-16T02:02:27.271Z,2.90
2022-08-16T02:05:14.272Z,2.60
2022-08-16T02:08:00.650Z,2.85
2022-08-16T02:10:47.338Z,3.25
2022-08-16T02:13:33.428Z,3.25
2022-08-16T02:16:20.430Z,2.63
2022-08-16T02:19:16.055Z,2.85
2022-08-16T02:22:08.402Z,2.92
2022-08-16T02:24:54.974Z,3.10
2022-08-16T02:27:41.283Z,3.15
2022-08-16T02:30:37.518Z,2.67
2022-08-16T02:33:43.466Z,2.65
2022-08-16T02:36:47.988Z,2.92
2022-08-16T02:39:37.930Z,2.42
2022-08-16T02:42:27.316Z,3.10
2022-08-16T02:45:14.103Z,2.78
2022-08-16T02:48:29.001Z,2.80
2022-08-16T02:51:11.491Z,2.67
2022-08-16T02:54:00.001Z,3.08
2022-08-16T02:56:47.836Z,3.00
2022-08-16T02:59:39.590Z,2.30
2022-08-16T03:02:31.914Z,3.17
2022-08-16T03:05:18.813Z,1.83
2022-08-16T03:08:06.252Z,1.80
2022-08-16T03:11:17.816Z,1.77
2022-08-16T03:14:08.441Z,1.90
2022-08-16T03:16:59.343Z,2.03
2022-08-16T03:19:59.880Z,1.85
2022-08-16T03:22:50.821Z,2.15
2022-08-16T03:25:40.980Z,1.70
2022-08-16T03:28:31.491Z,1.77
2022-08-16T03:31:16.754Z,1.40
2022-08-16T03:34:03.649Z,1.50
2022-08-16T03:36:49.534Z,2.00
2022-08-16T03:39:42.765Z,1.10
2022-08-16T03:42:29.044Z,1.50
2022-08-16T03:45:16.069Z,1.10
2022-08-16T03:48:02.906Z,1.30
2022-08-16T03:50:59.748Z,1.40
2022-08-16T03:54:00.755Z,1.45
2022-08-16T03:56:58.069Z,1.33
2022-08-16T03:59:48.116Z,1.23
2022-08-16T04:02:37.109Z,1.30
2022-08-16T04:05:30.492Z,1.52
2022-08-16T04:08:22.320Z,1.23
2022-08-16T04:11:16.405Z,1.33
2022-08-16T04:14:08.937Z,1.13
2022-08-16T04:17:09.962Z,1.80
2022-08-16T04:19:58.228Z,1.40
2022-08-16T04:22:44.752Z,1.95
2022-08-16T04:25:36.684Z,1.45
2022-08-16T04:28:51.728Z,1.30
2022-08-16T04:31:31.721Z,1.27
2022-08-16T04:34:21.924Z,1.55
2022-08-16T04:37:11.252Z,0.93
2022-08-16T04:40:05.694Z,1.33
2022-08-16T04:42:52.357Z,1.38
2022-08-16T04:45:43.228Z,1.75
2022-08-16T04:48:32.792Z,1.38
2022-08-16T04:51:23.582Z,1.30
2022-08-16T04:54:12.101Z,0.85
2022-08-16T04:56:58.232Z,2.00
2022-08-16T04:59:45.089Z,2.40
2022-08-16T05:02:42.090Z,1.50
2022-08-16T05:05:45.084Z,1.15
2022-08-16T05:08:47.436Z,1.50
2022-08-16T05:11:41.932Z,1.50
2022-08-16T05:14:45.866Z,1.25
2022-08-16T05:17:38.840Z,1.45
2022-08-16T05:20:39.552Z,1.33
2022-08-16T05:23:36.475Z,1.33
2022-08-16T05:26:22.363Z,1.27
2022-08-16T05:29:11.085Z,1.38
2022-08-16T05:32:33.005Z,1.40
2022-08-16T05:35:15.140Z,1.33
2022-08-16T05:38:33.364Z,1.42
2022-08-16T05:41:26.800Z,1.80
2022-08-16T05:44:23.260Z,1.08
2022-08-16T05:47:15.295Z,1.08
2022-08-16T05:50:05.763Z,1.00
2022-08-16T05:52:53.392Z,1.15
2022-08-16T05:55:41.033Z,1.13
2022-08-16T05:58:32.731Z,1.17
2022-08-16T06:01:20.782Z,1.45
2022-08-16T06:04:13.681Z,1.08
2022-08-16T06:07:24.723Z,1.10
2022-08-16T06:10:33.367Z,1.27
2022-08-16T06:13:21.914Z,1.15
2022-08-16T06:16:08.193Z,1.45
2022-08-16T06:18:57.785Z,1.45
2022-08-16T06:21:54.892Z,1.48
2022-08-16T06:24:52.706Z,1.45
2022-08-16T06:27:42.004Z,1.08
2022-08-16T06:33:41.399Z,1.38
2022-08-16T06:36:28.519Z,1.05
2022-08-16T06:39:49.259Z,0.70
2022-08-16T06:42:57.688Z,1.00
2022-08-16T06:46:23.271Z,0.88
2022-08-16T06:49:20.277Z,0.90
2022-08-16T06:52:06.224Z,1.23
2022-08-16T06:55:13.731Z,1.40
2022-08-16T06:58:08.396Z,1.23
2022-08-16T07:00:58.154Z,1.10
2022-08-16T07:03:55.581Z,1.20
2022-08-16T07:09:37.782Z,1.40
2022-08-16T07:12:23.821Z,1.08
2022-08-16T07:15:29.318Z,1.20
2022-08-16T07:18:20.160Z,1.65
2022-08-16T07:21:06.139Z,1.17
2022-08-16T07:23:57.942Z,0.80
2022-08-16T07:26:52.482Z,0.98
2022-08-16T07:29:40.241Z,1.67
2022-08-16T07:32:29.486Z,0.93
2022-08-16T07:35:17.962Z,0.80
2022-08-16T07:38:06.420Z,0.95
2022-08-16T07:41:12.228Z,0.90
2022-08-16T07:44:16.728Z,0.80
2022-08-16T07:47:05.671Z,1.02
2022-08-16T07:49:57.965Z,1.20
2022-08-16T07:52:45.736Z,0.80
2022-08-16T07:55:45.792Z,0.60
2022-08-16T07:58:39.387Z,0.68
2022-08-16T08:04:20.054Z,0.90
2022-08-16T08:07:09.033Z,1.10
2022-08-16T08:09:57.691Z,1.05
2022-08-16T08:12:44.387Z,1.23
2022-08-16T08:15:34.322Z,1.05
2022-08-16T08:18:30.610Z,0.93
2022-08-16T08:21:27.563Z,1.85
2022-08-16T08:24:32.059Z,0.77
2022-08-16T08:27:22.794Z,1.10
2022-08-16T08:30:51.443Z,0.88
2022-08-16T08:33:17.741Z,0.80
2022-08-16T08:36:07.673Z,1.10
2022-08-16T08:38:55.590Z,0.93
2022-08-16T08:41:46.520Z,1.20
2022-08-16T08:44:36.429Z,1.33
2022-08-16T08:47:24.742Z,2.25
2022-08-16T08:50:11.361Z,0.80
2022-08-16T08:53:17.185Z,1.27
2022-08-16T08:56:23.398Z,1.67
2022-08-16T08:59:20.305Z,1.15
2022-08-16T09:02:09.008Z,1.70
2022-08-16T09:05:15.649Z,1.17
2022-08-16T09:11:24.225Z,0.90
2022-08-16T09:14:27.343Z,1.05
2022-08-16T09:17:31.483Z,1.05
2022-08-16T09:20:19.953Z,0.85
2022-08-16T09:23:06.150Z,0.80
2022-08-16T09:26:01.129Z,1.15
2022-08-16T09:29:15.674Z,0.88
2022-08-16T09:31:55.533Z,0.80
2022-08-16T09:34:41.294Z,1.05
2022-08-16T09:37:36.453Z,1.02
2022-08-16T09:40:32.514Z,1.02
2022-08-16T09:43:58.245Z,1.67
2022-08-16T09:46:45.947Z,0.85
2022-08-16T09:49:36.789Z,0.93
2022-08-16T09:52:23.427Z,0.75
2022-08-16T09:55:12.639Z,0.95
2022-08-16T09:57:58.775Z,1.27
2022-08-16T10:00:45.614Z,1.00
2022-08-16T10:03:31.787Z,1.05
2022-08-16T10:06:22.326Z,0.85
2022-08-16T10:09:11.252Z,0.90
2022-08-16T10:12:19.484Z,0.60
2022-08-16T10:15:08.864Z,0.80
2022-08-16T10:18:56.125Z,0.80
2022-08-16T10:21:14.076Z,1.30
2022-08-16T10:24:00.228Z,0.80
2022-08-16T10:27:18.493Z,1.00
2022-08-16T10:29:59.910Z,0.75
2022-08-16T10:32:47.802Z,0.70
2022-08-16T10:35:33.587Z,1.08
2022-08-16T10:38:27.022Z,0.90
2022-08-16T10:41:15.872Z,0.85
2022-08-16T10:44:01.742Z,1.08
2022-08-16T10:46:49.286Z,0.90
2022-08-16T10:49:35.176Z,1.40
2022-08-16T10:52:24.344Z,1.00
2022-08-16T10:58:18.645Z,0.90
2022-08-16T11:20:40.852Z,1.20
2022-08-16T11:22:53.847Z,0.90
2022-08-16T11:31:54.009Z,1.08
2022-08-16T11:35:05.665Z,1.13
2022-08-16T11:38:23.585Z,0.90
2022-08-16T11:40:58.174Z,1.10
2022-08-16T11:43:43.892Z,0.95
2022-08-16T11:46:44.990Z,1.17
2022-08-16T11:49:31.380Z,1.33
2022-08-16T11:52:17.995Z,0.93
2022-08-16T11:55:10.023Z,1.83
2022-08-16T11:57:56.507Z,1.17
2022-08-16T12:00:50.441Z,1.40
2022-08-16T12:03:37.601Z,1.20
2022-08-16T12:06:25.231Z,1.40
2022-08-16T12:09:15.807Z,0.73
2022-08-16T12:12:02.999Z,1.30
2022-08-16T12:14:49.066Z,1.27
2022-08-16T12:17:39.115Z,1.20
2022-08-16T12:20:34.515Z,1.58
2022-08-16T12:23:20.186Z,1.20
2022-08-16T12:26:10.391Z,0.73
2022-08-16T12:28:56.676Z,1.00
2022-08-16T12:32:01.555Z,1.10
2022-08-16T12:34:52.613Z,1.10
2022-08-16T12:37:39.197Z,1.13
2022-08-16T12:40:35.385Z,1.05
2022-08-16T12:43:23.461Z,0.98
2022-08-16T12:46:12.831Z,1.20
2022-08-16T12:49:01.221Z,0.88
2022-08-16T12:51:58.872Z,1.20
2022-08-16T12:54:45.798Z,1.45
2022-08-16T12:57:40.668Z,1.02
2022-08-16T13:00:33.168Z,1.35
2022-08-16T13:03:21.504Z,1.10
2022-08-16T13:06:08.198Z,0.90
2022-08-16T13:08:55.413Z,1.20
2022-08-16T13:11:49.233Z,0.73
2022-08-16T13:14:44.179Z,1.00
2022-08-16T13:17:30.471Z,0.95
2022-08-16T13:20:19.586Z,0.90
2022-08-16T13:23:09.967Z,1.20
2022-08-16T13:25:57.483Z,1.08
2022-08-16T13:28:47.674Z,0.80
2022-08-16T13:31:33.624Z,0.98
2022-08-16T13:34:19.200Z,0.93
2022-08-16T13:37:04.976Z,0.80
2022-08-16T13:39:51.918Z,1.05
2022-08-16T13:42:41.490Z,1.08
2022-08-16T13:45:33.191Z,0.82
2022-08-16T13:48:24.385Z,1.23
2022-08-16T13:51:15.785Z,0.90
2022-08-16T13:56:49.956Z,1.15
2022-08-16T13:59:35.292Z,0.80
2022-08-16T14:02:23.882Z,1.05
2022-08-16T14:05:10.944Z,1.20
2022-08-16T14:07:56.636Z,1.05
2022-08-16T14:10:43.729Z,1.08
2022-08-16T14:13:29.299Z,0.93
2022-08-16T14:16:23.941Z,0.90
2022-08-16T14:19:18.997Z,1.20
2022-08-16T14:25:10.275Z,1.42
2022-08-16T14:27:56.083Z,1.15
2022-08-16T14:30:41.948Z,1.23
2022-08-16T14:33:27.486Z,1.15
2022-08-16T14:36:18.784Z,1.27
2022-08-16T14:39:14.963Z,1.90
2022-08-16T14:42:10.641Z,1.05
2022-08-16T14:45:00.528Z,1.15
2022-08-16T14:47:46.537Z,1.27
2022-08-16T14:50:35.626Z,1.15
2022-08-16T14:53:24.372Z,1.50
2022-08-16T14:56:14.993Z,1.52
2022-08-16T14:59:16.105Z,1.40
2022-08-16T15:02:02.474Z,1.17
2022-08-16T15:04:51.188Z,1.42
2022-08-16T15:07:40.228Z,1.30
2022-08-16T15:10:26.581Z,1.55
2022-08-16T15:13:13.662Z,1.25
2022-08-16T15:16:03.103Z,1.02
2022-08-16T15:18:49.482Z,1.30
2022-08-16T15:21:35.788Z,0.98
2022-08-16T15:24:22.356Z,1.35
2022-08-16T15:27:08.242Z,1.35
2022-08-16T15:29:57.723Z,1.20
2022-08-16T15:32:43.795Z,1.15
2022-08-16T15:35:33.511Z,1.20
2022-08-16T15:38:54.581Z,1.15
2022-08-16T15:41:44.355Z,0.80
2022-08-16T15:44:44.677Z,1.80
2022-08-16T15:47:38.823Z,0.95
2022-08-16T15:50:24.957Z,1.00
2022-08-16T15:53:15.055Z,1.25
2022-08-16T15:56:01.417Z,1.05
2022-08-16T15:58:55.745Z,1.02
2022-08-16T16:01:41.420Z,1.05
2022-08-16T16:04:31.459Z,0.65
2022-08-16T16:07:17.233Z,1.02
2022-08-16T16:10:07.881Z,1.25
2022-08-16T16:13:01.900Z,1.17
2022-08-16T16:15:52.792Z,1.20
2022-08-16T16:18:39.560Z,0.55
2022-08-16T16:21:27.684Z,0.68
2022-08-16T16:24:24.115Z,1.13
2022-08-16T16:27:16.366Z,1.25
2022-08-16T16:30:03.420Z,1.00
2022-08-16T16:33:11.033Z,1.08
2022-08-16T16:36:00.145Z,0.80
2022-08-16T16:38:47.704Z,1.20
2022-08-16T16:41:33.511Z,0.80
2022-08-16T16:44:32.054Z,1.02
2022-08-16T16:47:21.857Z,0.90
2022-08-16T16:50:09.380Z,1.30
2022-08-16T16:52:57.021Z,1.02
2022-08-16T16:55:43.398Z,1.40
2022-08-16T16:58:53.301Z,1.70
2022-08-16T17:01:57.729Z,1.50
2022-08-16T17:04:49.067Z,1.10
2022-08-16T17:07:34.675Z,1.13
2022-08-16T17:10:46.209Z,1.58
2022-08-16T17:13:26.623Z,1.70
2022-08-16T17:16:18.866Z,1.38
2022-08-16T17:19:17.300Z,1.95
2022-08-16T17:22:05.786Z,1.30
2022-08-16T17:25:00.593Z,1.38
2022-08-16T17:27:46.037Z,1.55
2022-08-16T17:30:45.575Z,2.33
2022-08-16T17:33:37.217Z,1.55
2022-08-16T17:36:39.134Z,1.63
2022-08-16T17:39:51.964Z,1.60
2022-08-16T17:42:47.955Z,1.88
2022-08-16T17:45:33.474Z,1.33
2022-08-16T17:48:18.961Z,1.60
2022-08-16T17:51:06.451Z,1.88
2022-08-16T17:53:52.021Z,2.33
2022-08-16T17:56:37.362Z,1.40
2022-08-16T17:59:24.257Z,1.60
2022-08-16T18:02:42.277Z,1.70
2022-08-16T18:05:18.266Z,1.77
2022-08-16T18:08:04.089Z,1.55
2022-08-16T18:10:55.726Z,1.85
2022-08-16T18:13:43.381Z,1.95
2022-08-16T18:16:29.043Z,1.73
2022-08-16T18:19:16.262Z,1.42
2022-08-16T18:22:20.235Z,1.60
2022-08-16T18:25:05.954Z,1.83
2022-08-16T18:27:51.226Z,1.50
2022-08-16T18:30:37.461Z,2.15
2022-08-16T18:33:25.348Z,1.92
2022-08-16T18:36:20.608Z,1.60
2022-08-16T18:39:06.939Z,1.75
2022-08-16T18:41:52.564Z,1.50
2022-08-16T18:44:40.181Z,2.00
2022-08-16T18:47:25.541Z,1.58
2022-08-16T18:50:10.917Z,1.45
2022-08-16T18:52:59.186Z,1.45
2022-08-16T18:55:46.328Z,1.60
2022-08-16T18:58:34.075Z,1.75
2022-08-16T19:01:19.883Z,1.60
2022-08-16T19:04:05.367Z,1.40
2022-08-16T19:07:10.860Z,1.40
2022-08-16T19:09:56.393Z,1.67
2022-08-16T19:12:42.484Z,1.58
2022-08-16T19:15:29.126Z,2.28
2022-08-16T19:18:15.035Z,1.27
2022-08-16T19:21:00.425Z,1.90
2022-08-16T19:23:46.333Z,1.70
2022-08-16T19:26:34.184Z,1.77
2022-08-16T19:29:19.744Z,1.52
2022-08-16T19:32:05.223Z,1.42
2022-08-16T19:34:56.701Z,1.67
2022-08-16T19:37:55.875Z,2.47
2022-08-16T19:40:41.341Z,2.10
2022-08-16T19:43:26.853Z,2.00
2022-08-16T19:46:12.214Z,1.80
2022-08-16T19:48:57.724Z,1.88
2022-08-16T19:51:43.242Z,1.50
2022-08-16T19:54:28.642Z,2.05
2022-08-16T19:57:26.458Z,1.70
2022-08-16T20:00:15.794Z,2.28
2022-08-16T20:03:02.116Z,2.83
2022-08-16T20:05:48.672Z,2.42
2022-08-16T20:08:34.268Z,3.63
2022-08-16T20:11:19.759Z,2.00
2022-08-16T20:14:05.779Z,1.95
2022-08-16T20:16:51.555Z,2.35
2022-08-16T20:19:40.570Z,2.05
2022-08-16T20:22:52.349Z,1.85
2022-08-16T20:25:41.242Z,2.22
2022-08-16T20:28:40.668Z,1.60
2022-08-16T20:31:32.816Z,2.30
2022-08-16T20:34:18.587Z,2.30
2022-08-16T20:37:06.211Z,2.28
2022-08-16T20:40:18.235Z,2.35
2022-08-16T20:43:02.563Z,2.13
2022-08-16T20:45:48.077Z,1.70
2022-08-16T20:48:33.671Z,1.58
2022-08-16T20:51:19.170Z,1.92
2022-08-16T20:54:04.785Z,1.95
2022-08-16T20:56:50.830Z,1.50
2022-08-16T20:59:36.604Z,1.77
2022-08-16T21:02:26.328Z,2.13
2022-08-16T21:05:19.299Z,2.33
2022-08-16T21:08:32.817Z,1.80
2022-08-16T21:11:11.605Z,1.70
2022-08-16T21:14:00.184Z,2.38
2022-08-16T21:16:46.447Z,2.30
2022-08-16T21:19:33.091Z,2.13
2022-08-16T21:22:21.558Z,2.13
2022-08-16T21:25:11.383Z,2.00
2022-08-16T21:28:40.193Z,1.98
2022-08-16T21:31:02.636Z,1.77
2022-08-16T21:33:55.729Z,1.52
2022-08-16T21:36:41.384Z,1.40
2022-08-16T21:39:27.487Z,1.60
2022-08-16T21:42:18.179Z,1.50
2022-08-16T21:45:04.227Z,1.60
2022-08-16T21:47:49.464Z,1.35
2022-08-16T21:50:36.733Z,1.40
2022-08-16T21:53:24.165Z,1.63
2022-08-16T21:56:16.670Z,1.73
2022-08-16T21:59:07.183Z,1.30
2022-08-16T22:01:52.792Z,1.92
2022-08-16T22:04:39.067Z,1.67
2022-08-16T22:07:24.892Z,1.73
2022-08-16T22:11:07.765Z,1.17
2022-08-16T22:13:24.984Z,2.00
2022-08-16T22:16:10.754Z,1.73
2022-08-16T22:18:56.208Z,1.80
2022-08-16T22:21:42.033Z,1.60
2022-08-16T22:24:27.627Z,2.13
2022-08-16T22:27:13.254Z,1.63
2022-08-16T22:29:58.881Z,2.65
2022-08-16T22:32:45.490Z,1.55
2022-08-16T22:35:31.026Z,1.73
2022-08-16T22:38:53.501Z,1.98
2022-08-16T22:41:22.403Z,1.70
2022-08-16T22:44:08.234Z,2.05
2022-08-16T22:46:53.914Z,2.17
2022-08-16T22:49:39.516Z,1.85
2022-08-16T22:52:55.645Z,2.15
2022-08-16T22:55:31.863Z,2.22
2022-08-16T22:58:18.627Z,2.28
2022-08-16T23:01:06.474Z,2.05
2022-08-16T23:03:55.713Z,2.20
2022-08-16T23:06:41.594Z,2.00
2022-08-16T23:09:27.200Z,2.13
2022-08-16T23:12:15.030Z,1.70
2022-08-16T23:15:04.732Z,1.85
2022-08-16T23:17:51.445Z,1.58
2022-08-16T23:20:38.783Z,1.75
2022-08-16T23:23:25.720Z,2.00
2022-08-16T23:26:43.792Z,2.08
2022-08-16T23:29:24.501Z,1.50
2022-08-16T23:32:12.209Z,2.17
2022-08-16T23:34:58.463Z,1.90
2022-08-16T23:37:43.953Z,2.50
2022-08-16T23:40:30.504Z,2.28
2022-08-16T23:43:20.123Z,1.92
2022-08-16T23:46:06.887Z,2.40
2022-08-16T23:49:58.177Z,1.90
2022-08-16T23:51:59.179Z,2.55
2022-08-16T23:54:44.909Z,2.00
2022-08-16T23:57:30.995Z,2.70
